sensor_id;sensor_type;location;lat;lon;timestamp;temperature;humidity
32293;DHT22;43233;48.608;8.838;2023-03-19T00:01:26;9.90;51.30
32293;DHT22;43233;48.608;8.838;2023-03-19T00:03:52;10.00;51.50
32293;DHT22;43233;48.608;8.838;2023-03-19T00:06:18;10.00;52.30
32293;DHT22;43233;48.608;8.838;2023-03-19T00:08:45;10.00;51.60
32293;DHT22;43233;48.608;8.838;2023-03-19T00:11:12;10.00;51.50
32293;DHT22;43233;48.608;8.838;2023-03-19T00:13:38;10.00;51.60
32293;DHT22;43233;48.608;8.838;2023-03-19T00:16:05;10.00;51.60
32293;DHT22;43233;48.608;8.838;2023-03-19T00:18:31;9.90;51.60
32293;DHT22;43233;48.608;8.838;2023-03-19T00:20:57;9.90;51.60
32293;DHT22;43233;48.608;8.838;2023-03-19T00:23:22;10.00;51.50
32293;DHT22;43233;48.608;8.838;2023-03-19T00:25:48;10.00;51.40
32293;DHT22;43233;48.608;8.838;2023-03-19T00:28:14;10.00;51.60
32293;DHT22;43233;48.608;8.838;2023-03-19T00:30:39;9.90;51.50
32293;DHT22;43233;48.608;8.838;2023-03-19T00:33:05;9.90;51.40
32293;DHT22;43233;48.608;8.838;2023-03-19T00:35:31;9.90;51.80
32293;DHT22;43233;48.608;8.838;2023-03-19T00:37:57;10.00;51.50
32293;DHT22;43233;48.608;8.838;2023-03-19T00:40:23;10.00;51.00
32293;DHT22;43233;48.608;8.838;2023-03-19T00:42:48;10.10;50.70
32293;DHT22;43233;48.608;8.838;2023-03-19T00:45:14;10.20;50.80
32293;DHT22;43233;48.608;8.838;2023-03-19T00:47:40;10.20;50.60
32293;DHT22;43233;48.608;8.838;2023-03-19T00:50:07;10.30;50.70
32293;DHT22;43233;48.608;8.838;2023-03-19T00:52:32;10.40;50.50
32293;DHT22;43233;48.608;8.838;2023-03-19T00:54:58;10.50;50.90
32293;DHT22;43233;48.608;8.838;2023-03-19T00:57:23;10.50;52.10
32293;DHT22;43233;48.608;8.838;2023-03-19T00:59:49;10.60;52.70
32293;DHT22;43233;48.608;8.838;2023-03-19T01:02:15;10.50;54.70
32293;DHT22;43233;48.608;8.838;2023-03-19T01:04:41;10.40;54.10
32293;DHT22;43233;48.608;8.838;2023-03-19T01:07:07;10.20;54.10
32293;DHT22;43233;48.608;8.838;2023-03-19T01:09:32;10.00;56.60
32293;DHT22;43233;48.608;8.838;2023-03-19T01:12:00;9.70;62.10
32293;DHT22;43233;48.608;8.838;2023-03-19T01:14:29;9.50;66.10
32293;DHT22;43233;48.608;8.838;2023-03-19T01:16:55;9.40;67.60
32293;DHT22;43233;48.608;8.838;2023-03-19T01:19:21;9.20;70.40
32293;DHT22;43233;48.608;8.838;2023-03-19T01:21:47;9.10;73.90
32293;DHT22;43233;48.608;8.838;2023-03-19T01:24:14;9.00;77.20
32293;DHT22;43233;48.608;8.838;2023-03-19T01:26:41;9.10;76.70
32293;DHT22;43233;48.608;8.838;2023-03-19T01:29:06;9.00;79.60
32293;DHT22;43233;48.608;8.838;2023-03-19T01:31:33;9.10;77.10
32293;DHT22;43233;48.608;8.838;2023-03-19T01:33:58;9.30;76.80
32293;DHT22;43233;48.608;8.838;2023-03-19T01:36:24;9.50;76.80
32293;DHT22;43233;48.608;8.838;2023-03-19T01:38:50;9.70;77.70
32293;DHT22;43233;48.608;8.838;2023-03-19T01:41:16;9.50;79.60
32293;DHT22;43233;48.608;8.838;2023-03-19T01:43:41;9.50;79.40
32293;DHT22;43233;48.608;8.838;2023-03-19T01:46:26;9.50;77.90
32293;DHT22;43233;48.608;8.838;2023-03-19T01:48:59;9.60;77.40
32293;DHT22;43233;48.608;8.838;2023-03-19T01:51:28;9.70;78.30
32293;DHT22;43233;48.608;8.838;2023-03-19T01:53:58;9.80;78.00
32293;DHT22;43233;48.608;8.838;2023-03-19T01:56:36;9.90;77.50
32293;DHT22;43233;48.608;8.838;2023-03-19T01:59:14;9.90;78.30
32293;DHT22;43233;48.608;8.838;2023-03-19T02:01:57;9.80;80.10
32293;DHT22;43233;48.608;8.838;2023-03-19T02:04:25;9.70;79.40
32293;DHT22;43233;48.608;8.838;2023-03-19T02:06:54;9.70;79.40
32293;DHT22;43233;48.608;8.838;2023-03-19T02:09:20;9.80;79.40
32293;DHT22;43233;48.608;8.838;2023-03-19T02:11:46;9.80;79.40
32293;DHT22;43233;48.608;8.838;2023-03-19T02:14:12;9.90;79.50
32293;DHT22;43233;48.608;8.838;2023-03-19T02:16:38;9.80;79.40
32293;DHT22;43233;48.608;8.838;2023-03-19T02:19:06;9.80;79.20
32293;DHT22;43233;48.608;8.838;2023-03-19T02:21:33;9.90;79.50
32293;DHT22;43233;48.608;8.838;2023-03-19T02:26:32;9.80;82.00
32293;DHT22;43233;48.608;8.838;2023-03-19T02:28:58;9.80;80.40
32293;DHT22;43233;48.608;8.838;2023-03-19T02:31:24;9.80;79.90
32293;DHT22;43233;48.608;8.838;2023-03-19T02:34:01;9.70;80.50
32293;DHT22;43233;48.608;8.838;2023-03-19T02:36:42;9.70;80.30
32293;DHT22;43233;48.608;8.838;2023-03-19T02:39:22;9.70;80.20
32293;DHT22;43233;48.608;8.838;2023-03-19T02:41:51;9.80;80.00
32293;DHT22;43233;48.608;8.838;2023-03-19T02:44:18;9.70;80.30
32293;DHT22;43233;48.608;8.838;2023-03-19T02:46:45;9.70;79.70
32293;DHT22;43233;48.608;8.838;2023-03-19T02:49:11;9.70;79.70
32293;DHT22;43233;48.608;8.838;2023-03-19T02:51:36;9.80;80.10
32293;DHT22;43233;48.608;8.838;2023-03-19T02:54:03;9.80;79.70
32293;DHT22;43233;48.608;8.838;2023-03-19T02:56:28;9.80;79.80
32293;DHT22;43233;48.608;8.838;2023-03-19T02:58:54;9.80;79.60
32293;DHT22;43233;48.608;8.838;2023-03-19T03:01:20;9.80;79.10
32293;DHT22;43233;48.608;8.838;2023-03-19T03:03:46;9.90;79.10
32293;DHT22;43233;48.608;8.838;2023-03-19T03:06:11;9.90;78.70
32293;DHT22;43233;48.608;8.838;2023-03-19T03:08:38;9.90;79.10
32293;DHT22;43233;48.608;8.838;2023-03-19T03:11:04;9.90;78.60
32293;DHT22;43233;48.608;8.838;2023-03-19T03:13:29;9.90;78.40
32293;DHT22;43233;48.608;8.838;2023-03-19T03:15:55;9.90;78.30
32293;DHT22;43233;48.608;8.838;2023-03-19T03:18:20;9.90;78.10
32293;DHT22;43233;48.608;8.838;2023-03-19T03:20:46;9.80;78.00
32293;DHT22;43233;48.608;8.838;2023-03-19T03:23:12;9.70;77.80
32293;DHT22;43233;48.608;8.838;2023-03-19T03:25:38;9.50;77.80
32293;DHT22;43233;48.608;8.838;2023-03-19T03:28:03;9.50;77.80
32293;DHT22;43233;48.608;8.838;2023-03-19T03:30:29;9.50;78.10
32293;DHT22;43233;48.608;8.838;2023-03-19T03:32:54;9.40;77.40
32293;DHT22;43233;48.608;8.838;2023-03-19T03:35:20;9.30;77.70
32293;DHT22;43233;48.608;8.838;2023-03-19T03:37:50;9.30;77.80
32293;DHT22;43233;48.608;8.838;2023-03-19T03:40:16;9.30;77.80
32293;DHT22;43233;48.608;8.838;2023-03-19T03:42:42;9.20;77.70
32293;DHT22;43233;48.608;8.838;2023-03-19T03:45:08;9.20;78.00
32293;DHT22;43233;48.608;8.838;2023-03-19T03:47:35;9.20;78.20
32293;DHT22;43233;48.608;8.838;2023-03-19T03:50:02;9.20;78.20
32293;DHT22;43233;48.608;8.838;2023-03-19T03:52:29;9.20;78.20
32293;DHT22;43233;48.608;8.838;2023-03-19T03:54:59;9.20;78.40
32293;DHT22;43233;48.608;8.838;2023-03-19T03:57:25;9.10;78.60
32293;DHT22;43233;48.608;8.838;2023-03-19T03:59:52;9.10;79.00
32293;DHT22;43233;48.608;8.838;2023-03-19T04:02:18;9.00;79.30
32293;DHT22;43233;48.608;8.838;2023-03-19T04:04:43;9.00;79.60
32293;DHT22;43233;48.608;8.838;2023-03-19T04:07:09;9.00;79.70
32293;DHT22;43233;48.608;8.838;2023-03-19T04:09:35;9.00;80.10
32293;DHT22;43233;48.608;8.838;2023-03-19T04:12:01;9.00;80.60
32293;DHT22;43233;48.608;8.838;2023-03-19T04:14:27;9.00;80.50
32293;DHT22;43233;48.608;8.838;2023-03-19T04:16:53;9.00;80.50
32293;DHT22;43233;48.608;8.838;2023-03-19T04:19:18;8.90;80.20
32293;DHT22;43233;48.608;8.838;2023-03-19T04:21:44;9.00;80.20
32293;DHT22;43233;48.608;8.838;2023-03-19T04:24:11;9.00;80.00
32293;DHT22;43233;48.608;8.838;2023-03-19T04:26:37;8.90;79.70
32293;DHT22;43233;48.608;8.838;2023-03-19T04:29:03;8.90;79.70
32293;DHT22;43233;48.608;8.838;2023-03-19T04:31:29;8.90;79.70
32293;DHT22;43233;48.608;8.838;2023-03-19T04:33:55;8.80;79.70
32293;DHT22;43233;48.608;8.838;2023-03-19T04:36:20;8.80;79.70
32293;DHT22;43233;48.608;8.838;2023-03-19T04:38:46;8.80;79.40
32293;DHT22;43233;48.608;8.838;2023-03-19T04:41:13;8.80;79.70
32293;DHT22;43233;48.608;8.838;2023-03-19T04:43:40;8.80;79.70
32293;DHT22;43233;48.608;8.838;2023-03-19T04:46:06;8.70;79.70
32293;DHT22;43233;48.608;8.838;2023-03-19T04:48:33;8.70;79.70
32293;DHT22;43233;48.608;8.838;2023-03-19T04:51:01;8.70;80.30
32293;DHT22;43233;48.608;8.838;2023-03-19T04:53:27;8.60;80.90
32293;DHT22;43233;48.608;8.838;2023-03-19T04:55:53;8.60;80.50
32293;DHT22;43233;48.608;8.838;2023-03-19T04:58:19;8.70;80.70
32293;DHT22;43233;48.608;8.838;2023-03-19T05:00:46;8.70;80.20
32293;DHT22;43233;48.608;8.838;2023-03-19T05:03:13;8.70;80.20
32293;DHT22;43233;48.608;8.838;2023-03-19T05:05:39;8.60;80.40
32293;DHT22;43233;48.608;8.838;2023-03-19T05:08:04;8.60;80.70
32293;DHT22;43233;48.608;8.838;2023-03-19T05:10:30;8.60;81.00
32293;DHT22;43233;48.608;8.838;2023-03-19T05:12:56;8.60;81.00
32293;DHT22;43233;48.608;8.838;2023-03-19T05:15:22;8.60;81.20
32293;DHT22;43233;48.608;8.838;2023-03-19T05:17:48;8.60;80.90
32293;DHT22;43233;48.608;8.838;2023-03-19T05:20:14;8.60;80.80
32293;DHT22;43233;48.608;8.838;2023-03-19T05:22:40;8.60;81.00
32293;DHT22;43233;48.608;8.838;2023-03-19T05:25:06;8.60;80.80
32293;DHT22;43233;48.608;8.838;2023-03-19T05:27:32;8.60;80.30
32293;DHT22;43233;48.608;8.838;2023-03-19T05:29:57;8.60;80.10
32293;DHT22;43233;48.608;8.838;2023-03-19T05:32:24;8.60;80.80
32293;DHT22;43233;48.608;8.838;2023-03-19T05:34:50;8.60;81.10
32293;DHT22;43233;48.608;8.838;2023-03-19T05:37:16;8.60;81.40
32293;DHT22;43233;48.608;8.838;2023-03-19T05:39:41;8.60;81.60
32293;DHT22;43233;48.608;8.838;2023-03-19T05:42:07;8.60;82.70
32293;DHT22;43233;48.608;8.838;2023-03-19T05:44:33;8.60;81.70
32293;DHT22;43233;48.608;8.838;2023-03-19T05:46:58;8.60;81.80
32293;DHT22;43233;48.608;8.838;2023-03-19T05:49:24;8.60;81.50
32293;DHT22;43233;48.608;8.838;2023-03-19T05:51:50;8.70;81.30
32293;DHT22;43233;48.608;8.838;2023-03-19T05:54:16;8.70;81.40
32293;DHT22;43233;48.608;8.838;2023-03-19T05:56:41;8.70;81.70
32293;DHT22;43233;48.608;8.838;2023-03-19T05:59:07;8.70;81.70
32293;DHT22;43233;48.608;8.838;2023-03-19T06:01:33;8.70;82.00
32293;DHT22;43233;48.608;8.838;2023-03-19T06:03:58;8.70;81.30
32293;DHT22;43233;48.608;8.838;2023-03-19T06:06:24;8.80;80.80
32293;DHT22;43233;48.608;8.838;2023-03-19T06:08:49;8.80;80.50
32293;DHT22;43233;48.608;8.838;2023-03-19T06:11:15;8.80;80.40
32293;DHT22;43233;48.608;8.838;2023-03-19T06:13:41;8.70;80.60
32293;DHT22;43233;48.608;8.838;2023-03-19T06:16:08;8.70;80.90
32293;DHT22;43233;48.608;8.838;2023-03-19T06:18:34;8.70;81.00
32293;DHT22;43233;48.608;8.838;2023-03-19T06:21:00;8.70;80.80
32293;DHT22;43233;48.608;8.838;2023-03-19T06:23:27;8.70;80.70
32293;DHT22;43233;48.608;8.838;2023-03-19T06:25:52;8.70;80.70
32293;DHT22;43233;48.608;8.838;2023-03-19T06:28:18;8.70;80.80
32293;DHT22;43233;48.608;8.838;2023-03-19T06:30:43;8.70;81.10
32293;DHT22;43233;48.608;8.838;2023-03-19T06:33:09;8.70;81.20
32293;DHT22;43233;48.608;8.838;2023-03-19T06:35:35;8.70;81.00
32293;DHT22;43233;48.608;8.838;2023-03-19T06:38:01;8.70;81.10
32293;DHT22;43233;48.608;8.838;2023-03-19T06:40:26;8.70;81.40
32293;DHT22;43233;48.608;8.838;2023-03-19T06:42:52;8.70;81.60
32293;DHT22;43233;48.608;8.838;2023-03-19T06:45:18;8.70;81.60
32293;DHT22;43233;48.608;8.838;2023-03-19T06:47:44;8.70;81.80
32293;DHT22;43233;48.608;8.838;2023-03-19T06:50:12;8.70;82.00
32293;DHT22;43233;48.608;8.838;2023-03-19T06:52:40;8.70;81.70
32293;DHT22;43233;48.608;8.838;2023-03-19T06:55:06;8.70;81.80
32293;DHT22;43233;48.608;8.838;2023-03-19T06:57:33;8.70;82.00
32293;DHT22;43233;48.608;8.838;2023-03-19T06:59:58;8.60;82.40
32293;DHT22;43233;48.608;8.838;2023-03-19T07:02:24;8.60;82.70
32293;DHT22;43233;48.608;8.838;2023-03-19T07:04:50;8.60;82.80
32293;DHT22;43233;48.608;8.838;2023-03-19T07:07:17;8.70;83.30
32293;DHT22;43233;48.608;8.838;2023-03-19T07:09:42;8.70;83.10
32293;DHT22;43233;48.608;8.838;2023-03-19T07:12:08;8.70;82.80
32293;DHT22;43233;48.608;8.838;2023-03-19T07:14:34;8.70;83.00
32293;DHT22;43233;48.608;8.838;2023-03-19T07:17:00;8.80;83.30
32293;DHT22;43233;48.608;8.838;2023-03-19T07:19:26;8.90;82.80
32293;DHT22;43233;48.608;8.838;2023-03-19T07:21:51;8.90;82.30
32293;DHT22;43233;48.608;8.838;2023-03-19T07:24:17;8.90;82.50
32293;DHT22;43233;48.608;8.838;2023-03-19T07:26:42;8.90;82.60
32293;DHT22;43233;48.608;8.838;2023-03-19T07:29:09;9.00;82.40
32293;DHT22;43233;48.608;8.838;2023-03-19T07:31:34;9.00;82.20
32293;DHT22;43233;48.608;8.838;2023-03-19T07:34:00;9.10;82.40
32293;DHT22;43233;48.608;8.838;2023-03-19T07:36:26;9.10;82.40
32293;DHT22;43233;48.608;8.838;2023-03-19T07:38:51;9.20;82.40
32293;DHT22;43233;48.608;8.838;2023-03-19T07:41:17;9.20;82.20
32293;DHT22;43233;48.608;8.838;2023-03-19T07:43:42;9.30;81.90
32293;DHT22;43233;48.608;8.838;2023-03-19T07:46:08;9.30;81.80
32293;DHT22;43233;48.608;8.838;2023-03-19T07:48:33;9.30;81.50
32293;DHT22;43233;48.608;8.838;2023-03-19T07:51:00;9.40;81.40
32293;DHT22;43233;48.608;8.838;2023-03-19T07:53:25;9.50;81.20
32293;DHT22;43233;48.608;8.838;2023-03-19T07:55:51;9.50;81.20
32293;DHT22;43233;48.608;8.838;2023-03-19T07:58:17;9.50;81.00
32293;DHT22;43233;48.608;8.838;2023-03-19T08:00:43;9.60;81.70
32293;DHT22;43233;48.608;8.838;2023-03-19T08:03:09;9.70;81.50
32293;DHT22;43233;48.608;8.838;2023-03-19T08:05:35;9.70;81.30
32293;DHT22;43233;48.608;8.838;2023-03-19T08:08:00;9.90;81.40
32293;DHT22;43233;48.608;8.838;2023-03-19T08:10:26;9.90;81.10
32293;DHT22;43233;48.608;8.838;2023-03-19T08:12:52;10.00;80.50
32293;DHT22;43233;48.608;8.838;2023-03-19T08:15:17;10.00;79.70
32293;DHT22;43233;48.608;8.838;2023-03-19T08:17:43;10.10;79.80
32293;DHT22;43233;48.608;8.838;2023-03-19T08:20:11;10.20;79.10
32293;DHT22;43233;48.608;8.838;2023-03-19T08:22:37;10.30;79.10
32293;DHT22;43233;48.608;8.838;2023-03-19T08:25:05;10.30;78.70
32293;DHT22;43233;48.608;8.838;2023-03-19T08:27:31;10.50;78.90
32293;DHT22;43233;48.608;8.838;2023-03-19T08:30:00;10.50;78.70
32293;DHT22;43233;48.608;8.838;2023-03-19T08:32:27;10.50;77.50
32293;DHT22;43233;48.608;8.838;2023-03-19T08:34:52;10.60;77.90
32293;DHT22;43233;48.608;8.838;2023-03-19T08:37:18;10.60;78.00
32293;DHT22;43233;48.608;8.838;2023-03-19T08:39:44;10.80;76.80
32293;DHT22;43233;48.608;8.838;2023-03-19T08:42:10;10.90;76.70
32293;DHT22;43233;48.608;8.838;2023-03-19T08:44:35;11.00;76.10
32293;DHT22;43233;48.608;8.838;2023-03-19T08:47:01;11.10;74.20
32293;DHT22;43233;48.608;8.838;2023-03-19T08:49:28;11.20;73.70
32293;DHT22;43233;48.608;8.838;2023-03-19T08:51:53;11.20;73.90
32293;DHT22;43233;48.608;8.838;2023-03-19T08:54:19;11.20;75.10
32293;DHT22;43233;48.608;8.838;2023-03-19T08:56:45;11.30;74.50
32293;DHT22;43233;48.608;8.838;2023-03-19T08:59:11;11.50;73.90
32293;DHT22;43233;48.608;8.838;2023-03-19T09:01:37;11.60;73.50
32293;DHT22;43233;48.608;8.838;2023-03-19T09:04:02;11.70;74.10
32293;DHT22;43233;48.608;8.838;2023-03-19T09:06:29;11.80;71.90
32293;DHT22;43233;48.608;8.838;2023-03-19T09:08:55;11.80;70.00
32293;DHT22;43233;48.608;8.838;2023-03-19T09:11:20;11.90;71.30
32293;DHT22;43233;48.608;8.838;2023-03-19T09:13:47;12.00;71.60
32293;DHT22;43233;48.608;8.838;2023-03-19T09:16:14;12.10;69.20
32293;DHT22;43233;48.608;8.838;2023-03-19T09:18:40;12.30;66.00
32293;DHT22;43233;48.608;8.838;2023-03-19T09:21:05;12.40;64.50
32293;DHT22;43233;48.608;8.838;2023-03-19T09:23:31;12.50;64.20
32293;DHT22;43233;48.608;8.838;2023-03-19T09:25:57;12.60;60.60
32293;DHT22;43233;48.608;8.838;2023-03-19T09:28:23;12.70;61.20
32293;DHT22;43233;48.608;8.838;2023-03-19T09:30:49;12.70;61.70
32293;DHT22;43233;48.608;8.838;2023-03-19T09:33:16;12.80;60.40
32293;DHT22;43233;48.608;8.838;2023-03-19T09:35:47;12.80;59.20
32293;DHT22;43233;48.608;8.838;2023-03-19T09:38:13;13.00;56.90
32293;DHT22;43233;48.608;8.838;2023-03-19T09:40:46;12.90;54.40
32293;DHT22;43233;48.608;8.838;2023-03-19T09:46:09;12.80;56.50
32293;DHT22;43233;48.608;8.838;2023-03-19T09:48:46;12.80;57.60
32293;DHT22;43233;48.608;8.838;2023-03-19T09:51:19;12.90;57.10
32293;DHT22;43233;48.608;8.838;2023-03-19T09:53:56;13.00;58.20
32293;DHT22;43233;48.608;8.838;2023-03-19T09:56:24;13.20;54.90
32293;DHT22;43233;48.608;8.838;2023-03-19T09:58:50;13.20;54.20
32293;DHT22;43233;48.608;8.838;2023-03-19T10:01:34;13.30;55.00
32293;DHT22;43233;48.608;8.838;2023-03-19T10:07:05;13.60;54.60
32293;DHT22;43233;48.608;8.838;2023-03-19T10:09:40;13.60;53.10
32293;DHT22;43233;48.608;8.838;2023-03-19T10:12:21;13.60;52.10
32293;DHT22;43233;48.608;8.838;2023-03-19T10:15:16;13.70;49.10
32293;DHT22;43233;48.608;8.838;2023-03-19T10:17:53;13.50;50.50
32293;DHT22;43233;48.608;8.838;2023-03-19T10:20:29;13.50;49.80
32293;DHT22;43233;48.608;8.838;2023-03-19T10:25:38;13.90;46.90
32293;DHT22;43233;48.608;8.838;2023-03-19T10:28:16;14.00;46.10
32293;DHT22;43233;48.608;8.838;2023-03-19T10:36:19;14.20;44.50
32293;DHT22;43233;48.608;8.838;2023-03-19T10:38:45;14.30;45.50
32293;DHT22;43233;48.608;8.838;2023-03-19T10:41:33;14.30;45.10
32293;DHT22;43233;48.608;8.838;2023-03-19T10:44:05;14.40;45.00
32293;DHT22;43233;48.608;8.838;2023-03-19T10:46:38;14.40;45.70
32293;DHT22;43233;48.608;8.838;2023-03-19T10:49:10;14.50;45.00
32293;DHT22;43233;48.608;8.838;2023-03-19T10:51:35;14.60;45.60
32293;DHT22;43233;48.608;8.838;2023-03-19T10:54:25;14.70;46.40
32293;DHT22;43233;48.608;8.838;2023-03-19T10:56:54;14.60;45.00
32293;DHT22;43233;48.608;8.838;2023-03-19T10:59:24;14.70;44.40
32293;DHT22;43233;48.608;8.838;2023-03-19T11:02:01;14.60;45.80
32293;DHT22;43233;48.608;8.838;2023-03-19T11:04:27;14.60;45.60
32293;DHT22;43233;48.608;8.838;2023-03-19T11:06:55;14.80;44.80
32293;DHT22;43233;48.608;8.838;2023-03-19T11:09:34;14.80;43.60
32293;DHT22;43233;48.608;8.838;2023-03-19T11:14:50;15.10;44.60
32293;DHT22;43233;48.608;8.838;2023-03-19T11:19:57;15.30;43.60
32293;DHT22;43233;48.608;8.838;2023-03-19T11:22:31;15.30;44.70
32293;DHT22;43233;48.608;8.838;2023-03-19T11:25:13;15.40;43.80
32293;DHT22;43233;48.608;8.838;2023-03-19T11:27:39;15.40;43.50
32293;DHT22;43233;48.608;8.838;2023-03-19T11:30:17;15.30;42.30
32293;DHT22;43233;48.608;8.838;2023-03-19T11:55:40;15.70;42.00
32293;DHT22;43233;48.608;8.838;2023-03-19T12:01:18;16.00;40.30
32293;DHT22;43233;48.608;8.838;2023-03-19T12:06:52;16.10;39.40
32293;DHT22;43233;48.608;8.838;2023-03-19T12:16:12;15.30;40.40
32293;DHT22;43233;48.608;8.838;2023-03-19T12:21:24;14.60;43.00
32293;DHT22;43233;48.608;8.838;2023-03-19T12:29:40;14.40;43.20
32293;DHT22;43233;48.608;8.838;2023-03-19T12:32:18;14.50;45.10
32293;DHT22;43233;48.608;8.838;2023-03-19T12:34:54;14.50;42.70
32293;DHT22;43233;48.608;8.838;2023-03-19T12:37:29;14.60;43.30
32293;DHT22;43233;48.608;8.838;2023-03-19T12:42:38;14.70;42.00
32293;DHT22;43233;48.608;8.838;2023-03-19T12:45:35;14.70;42.80
32293;DHT22;43233;48.608;8.838;2023-03-19T12:48:11;14.80;43.20
32293;DHT22;43233;48.608;8.838;2023-03-19T12:50:42;14.80;41.60
32293;DHT22;43233;48.608;8.838;2023-03-19T12:54:29;14.70;42.90
32293;DHT22;43233;48.608;8.838;2023-03-19T12:56:33;14.80;43.60
32293;DHT22;43233;48.608;8.838;2023-03-19T12:59:08;14.80;42.00
32293;DHT22;43233;48.608;8.838;2023-03-19T13:01:39;14.70;42.80
32293;DHT22;43233;48.608;8.838;2023-03-19T13:04:13;14.70;43.80
32293;DHT22;43233;48.608;8.838;2023-03-19T13:06:52;14.60;43.60
32293;DHT22;43233;48.608;8.838;2023-03-19T13:09:48;14.60;43.40
32293;DHT22;43233;48.608;8.838;2023-03-19T13:12:18;14.60;44.50
32293;DHT22;43233;48.608;8.838;2023-03-19T13:17:35;14.50;43.70
32293;DHT22;43233;48.608;8.838;2023-03-19T13:20:19;14.40;43.30
32293;DHT22;43233;48.608;8.838;2023-03-19T13:22:54;14.40;44.10
32293;DHT22;43233;48.608;8.838;2023-03-19T13:25:30;14.40;45.00
32293;DHT22;43233;48.608;8.838;2023-03-19T13:27:57;14.40;44.20
32293;DHT22;43233;48.608;8.838;2023-03-19T13:30:23;14.40;44.10
32293;DHT22;43233;48.608;8.838;2023-03-19T13:38:37;14.50;45.80
32293;DHT22;43233;48.608;8.838;2023-03-19T13:41:04;14.50;45.90
32293;DHT22;43233;48.608;8.838;2023-03-19T13:56:26;13.90;46.60
32293;DHT22;43233;48.608;8.838;2023-03-19T13:59:21;13.90;47.70
32293;DHT22;43233;48.608;8.838;2023-03-19T14:01:48;14.00;47.30
32293;DHT22;43233;48.608;8.838;2023-03-19T14:07:16;14.00;47.70
32293;DHT22;43233;48.608;8.838;2023-03-19T14:10:25;14.00;45.90
32293;DHT22;43233;48.608;8.838;2023-03-19T14:13:07;13.90;45.30
32293;DHT22;43233;48.608;8.838;2023-03-19T14:15:40;14.00;45.90
32293;DHT22;43233;48.608;8.838;2023-03-19T14:18:16;14.00;45.70
32293;DHT22;43233;48.608;8.838;2023-03-19T14:20:50;14.10;45.50
32293;DHT22;43233;48.608;8.838;2023-03-19T14:23:26;14.10;46.00
32293;DHT22;43233;48.608;8.838;2023-03-19T14:36:37;14.10;46.90
32293;DHT22;43233;48.608;8.838;2023-03-19T14:39:30;14.10;47.60
32293;DHT22;43233;48.608;8.838;2023-03-19T14:42:04;14.20;47.60
32293;DHT22;43233;48.608;8.838;2023-03-19T14:44:41;14.20;47.30
32293;DHT22;43233;48.608;8.838;2023-03-19T14:53:18;14.10;46.30
32293;DHT22;43233;48.608;8.838;2023-03-19T14:55:51;14.00;46.40
32293;DHT22;43233;48.608;8.838;2023-03-19T14:58:18;14.10;47.20
32293;DHT22;43233;48.608;8.838;2023-03-19T15:00:48;14.40;47.60
32293;DHT22;43233;48.608;8.838;2023-03-19T15:03:34;14.70;45.20
32293;DHT22;43233;48.608;8.838;2023-03-19T15:06:05;15.10;45.30
32293;DHT22;43233;48.608;8.838;2023-03-19T15:08:34;15.40;43.60
32293;DHT22;43233;48.608;8.838;2023-03-19T15:16:30;15.50;43.70
32293;DHT22;43233;48.608;8.838;2023-03-19T15:19:00;15.60;43.00
32293;DHT22;43233;48.608;8.838;2023-03-19T15:21:28;15.70;43.60
32293;DHT22;43233;48.608;8.838;2023-03-19T15:23:54;15.90;42.90
32293;DHT22;43233;48.608;8.838;2023-03-19T15:26:38;15.50;43.30
32293;DHT22;43233;48.608;8.838;2023-03-19T15:29:05;15.60;43.80
32293;DHT22;43233;48.608;8.838;2023-03-19T15:31:41;15.40;42.70
32293;DHT22;43233;48.608;8.838;2023-03-19T15:34:23;15.10;42.90
32293;DHT22;43233;48.608;8.838;2023-03-19T15:39:22;15.20;43.50
32293;DHT22;43233;48.608;8.838;2023-03-19T15:41:49;15.40;42.80
32293;DHT22;43233;48.608;8.838;2023-03-19T15:44:38;15.40;42.60
32293;DHT22;43233;48.608;8.838;2023-03-19T15:47:07;15.30;44.90
32293;DHT22;43233;48.608;8.838;2023-03-19T15:49:42;15.20;44.10
32293;DHT22;43233;48.608;8.838;2023-03-19T15:52:11;15.10;44.20
32293;DHT22;43233;48.608;8.838;2023-03-19T15:54:38;15.00;46.00
32293;DHT22;43233;48.608;8.838;2023-03-19T15:57:05;14.80;46.70
32293;DHT22;43233;48.608;8.838;2023-03-19T15:59:32;14.80;46.90
32293;DHT22;43233;48.608;8.838;2023-03-19T16:01:59;14.70;47.50
32293;DHT22;43233;48.608;8.838;2023-03-19T16:04:26;14.60;47.60
32293;DHT22;43233;48.608;8.838;2023-03-19T16:06:56;14.60;47.60
32293;DHT22;43233;48.608;8.838;2023-03-19T16:09:35;14.50;47.60
32293;DHT22;43233;48.608;8.838;2023-03-19T16:12:01;14.40;48.00
32293;DHT22;43233;48.608;8.838;2023-03-19T16:17:02;14.50;48.00
32293;DHT22;43233;48.608;8.838;2023-03-19T16:19:46;14.40;48.40
32293;DHT22;43233;48.608;8.838;2023-03-19T16:22:18;14.40;48.90
32293;DHT22;43233;48.608;8.838;2023-03-19T16:24:46;14.50;49.40
32293;DHT22;43233;48.608;8.838;2023-03-19T16:27:15;14.40;49.70
32293;DHT22;43233;48.608;8.838;2023-03-19T16:29:55;14.20;51.70
32293;DHT22;43233;48.608;8.838;2023-03-19T16:32:25;13.90;53.00
32293;DHT22;43233;48.608;8.838;2023-03-19T16:35:03;13.60;54.20
32293;DHT22;43233;48.608;8.838;2023-03-19T16:38:44;13.40;55.00
32293;DHT22;43233;48.608;8.838;2023-03-19T16:43:44;12.90;55.70
32293;DHT22;43233;48.608;8.838;2023-03-19T16:46:12;12.90;56.30
32293;DHT22;43233;48.608;8.838;2023-03-19T16:48:39;12.80;56.10
32293;DHT22;43233;48.608;8.838;2023-03-19T16:51:11;12.70;57.20
32293;DHT22;43233;48.608;8.838;2023-03-19T16:53:37;12.60;57.30
32293;DHT22;43233;48.608;8.838;2023-03-19T16:56:03;12.60;57.90
32293;DHT22;43233;48.608;8.838;2023-03-19T16:58:35;12.60;59.30
32293;DHT22;43233;48.608;8.838;2023-03-19T17:01:12;12.50;59.30
32293;DHT22;43233;48.608;8.838;2023-03-19T17:03:40;12.40;60.30
32293;DHT22;43233;48.608;8.838;2023-03-19T17:06:07;12.50;61.10
32293;DHT22;43233;48.608;8.838;2023-03-19T17:08:33;12.50;60.50
32293;DHT22;43233;48.608;8.838;2023-03-19T17:10:58;12.60;59.90
32293;DHT22;43233;48.608;8.838;2023-03-19T17:13:26;12.80;59.40
32293;DHT22;43233;48.608;8.838;2023-03-19T17:15:57;12.80;59.10
32293;DHT22;43233;48.608;8.838;2023-03-19T17:18:27;12.80;59.60
32293;DHT22;43233;48.608;8.838;2023-03-19T17:20:57;12.80;59.80
32293;DHT22;43233;48.608;8.838;2023-03-19T17:23:26;12.50;60.40
32293;DHT22;43233;48.608;8.838;2023-03-19T17:25:52;12.00;62.00
32293;DHT22;43233;48.608;8.838;2023-03-19T17:28:18;11.90;63.30
32293;DHT22;43233;48.608;8.838;2023-03-19T17:30:45;11.70;64.40
32293;DHT22;43233;48.608;8.838;2023-03-19T17:33:27;11.60;65.00
32293;DHT22;43233;48.608;8.838;2023-03-19T17:35:55;11.50;65.10
32293;DHT22;43233;48.608;8.838;2023-03-19T17:38:29;11.40;65.60
32293;DHT22;43233;48.608;8.838;2023-03-19T17:40:56;11.30;66.60
32293;DHT22;43233;48.608;8.838;2023-03-19T17:43:21;11.30;67.20
32293;DHT22;43233;48.608;8.838;2023-03-19T17:45:47;11.30;67.60
32293;DHT22;43233;48.608;8.838;2023-03-19T17:48:18;11.20;67.80
32293;DHT22;43233;48.608;8.838;2023-03-19T17:50:46;11.30;67.90
32293;DHT22;43233;48.608;8.838;2023-03-19T17:53:12;11.20;68.20